Fairoaks, Pennsylvania
Current Conditions -  °F | °C
As of 4:51 PM on Tuesday 21 Oct 2014 (Local Time) from KPIT Reporting Station
Overcast Overcast  
Wind Chill: 50°   Ceiling: 2300
Heat Index: 50°   Visibility: 10mi
Dew Point: 46°   Wind: 16mph
Humidity: 86%   Direction: 350°N
Pressure: 29.93"   Gusts: NA
Location:  40.6018°N, 80.2094°W
Report Text: KPIT 212051Z 35014KT 10SM FEW012 BKN023 OVC035 10/08 A2993 RMK AO2 RAE29 SLP145 P0001 60001 T01000078 53016
Loading
Personal Weather Stations






























Interactive Weather Map
Tropical Storm Tracking
New forecast layout! Learn more

10-Day Weather Forecast

Advertisements
Track Severe Weather on mobile